sensor_id;sensor_type;location;lat;lon;timestamp;P1;durP1;ratioP1;P2;durP2;ratioP2
22388;SDS011;11362;48.102;11.620;2022-12-20T00:00:48;9.23;;;6.47;;
22388;SDS011;11362;48.102;11.620;2022-12-20T00:03:14;9.37;;;6.10;;
22388;SDS011;11362;48.102;11.620;2022-12-20T00:05:40;8.23;;;5.80;;
22388;SDS011;11362;48.102;11.620;2022-12-20T00:08:06;9.63;;;6.50;;
22388;SDS011;11362;48.102;11.620;2022-12-20T00:10:36;9.07;;;6.03;;
22388;SDS011;11362;48.102;11.620;2022-12-20T00:13:02;7.30;;;5.87;;
22388;SDS011;11362;48.102;11.620;2022-12-20T00:15:28;6.57;;;5.67;;
22388;SDS011;11362;48.102;11.620;2022-12-20T00:17:53;8.50;;;6.87;;
22388;SDS011;11362;48.102;11.620;2022-12-20T00:20:18;9.53;;;6.17;;
22388;SDS011;11362;48.102;11.620;2022-12-20T00:22:44;9.37;;;6.10;;
22388;SDS011;11362;48.102;11.620;2022-12-20T00:25:09;6.13;;;5.50;;
22388;SDS011;11362;48.102;11.620;2022-12-20T00:27:34;7.33;;;5.67;;
22388;SDS011;11362;48.102;11.620;2022-12-20T00:29:59;7.07;;;5.63;;
22388;SDS011;11362;48.102;11.620;2022-12-20T00:32:25;8.70;;;6.20;;
22388;SDS011;11362;48.102;11.620;2022-12-20T00:34:51;8.63;;;5.17;;
22388;SDS011;11362;48.102;11.620;2022-12-20T00:37:16;7.77;;;5.63;;
22388;SDS011;11362;48.102;11.620;2022-12-20T00:39:42;7.90;;;5.70;;
22388;SDS011;11362;48.102;11.620;2022-12-20T00:42:07;6.07;;;4.87;;
22388;SDS011;11362;48.102;11.620;2022-12-20T00:44:32;6.60;;;5.20;;
22388;SDS011;11362;48.102;11.620;2022-12-20T00:46:57;7.10;;;4.80;;
22388;SDS011;11362;48.102;11.620;2022-12-20T00:49:23;7.77;;;5.00;;
22388;SDS011;11362;48.102;11.620;2022-12-20T00:51:48;5.10;;;4.50;;
22388;SDS011;11362;48.102;11.620;2022-12-20T00:54:13;6.97;;;5.37;;
22388;SDS011;11362;48.102;11.620;2022-12-20T00:56:38;5.80;;;5.00;;
22388;SDS011;11362;48.102;11.620;2022-12-20T00:59:04;6.27;;;4.77;;
22388;SDS011;11362;48.102;11.620;2022-12-20T01:01:30;4.53;;;4.10;;
22388;SDS011;11362;48.102;11.620;2022-12-20T01:03:56;4.80;;;4.33;;
22388;SDS011;11362;48.102;11.620;2022-12-20T01:06:22;5.30;;;4.80;;
22388;SDS011;11362;48.102;11.620;2022-12-20T01:08:48;6.00;;;5.00;;
22388;SDS011;11362;48.102;11.620;2022-12-20T01:11:15;5.17;;;4.30;;
22388;SDS011;11362;48.102;11.620;2022-12-20T01:13:45;5.17;;;4.57;;
22388;SDS011;11362;48.102;11.620;2022-12-20T01:16:20;5.20;;;4.70;;
22388;SDS011;11362;48.102;11.620;2022-12-20T01:18:51;5.77;;;4.70;;
22388;SDS011;11362;48.102;11.620;2022-12-20T01:21:18;5.53;;;4.03;;
22388;SDS011;11362;48.102;11.620;2022-12-20T01:23:45;4.80;;;4.40;;
22388;SDS011;11362;48.102;11.620;2022-12-20T01:26:15;4.77;;;4.37;;
22388;SDS011;11362;48.102;11.620;2022-12-20T01:28:44;4.40;;;4.00;;
22388;SDS011;11362;48.102;11.620;2022-12-20T01:31:14;4.43;;;3.97;;
22388;SDS011;11362;48.102;11.620;2022-12-20T01:33:42;4.33;;;3.77;;
22388;SDS011;11362;48.102;11.620;2022-12-20T01:36:16;5.80;;;4.40;;
22388;SDS011;11362;48.102;11.620;2022-12-20T01:38:43;6.73;;;4.27;;
22388;SDS011;11362;48.102;11.620;2022-12-20T01:41:12;5.23;;;3.93;;
22388;SDS011;11362;48.102;11.620;2022-12-20T01:43:48;3.97;;;3.53;;
22388;SDS011;11362;48.102;11.620;2022-12-20T01:46:16;4.63;;;3.70;;
22388;SDS011;11362;48.102;11.620;2022-12-20T01:48:45;5.30;;;3.93;;
22388;SDS011;11362;48.102;11.620;2022-12-20T01:51:15;3.70;;;3.40;;
22388;SDS011;11362;48.102;11.620;2022-12-20T01:53:42;5.20;;;4.27;;
22388;SDS011;11362;48.102;11.620;2022-12-20T01:56:08;3.30;;;3.10;;
22388;SDS011;11362;48.102;11.620;2022-12-20T01:58:35;4.70;;;3.60;;
22388;SDS011;11362;48.102;11.620;2022-12-20T02:01:02;3.67;;;3.37;;
22388;SDS011;11362;48.102;11.620;2022-12-20T02:03:27;3.87;;;3.40;;
22388;SDS011;11362;48.102;11.620;2022-12-20T02:05:54;3.63;;;3.33;;
22388;SDS011;11362;48.102;11.620;2022-12-20T02:08:20;4.17;;;3.73;;
22388;SDS011;11362;48.102;11.620;2022-12-20T02:13:46;3.80;;;3.17;;
22388;SDS011;11362;48.102;11.620;2022-12-20T02:16:30;3.37;;;3.00;;
22388;SDS011;11362;48.102;11.620;2022-12-20T02:19:19;3.87;;;3.37;;
22388;SDS011;11362;48.102;11.620;2022-12-20T02:22:13;3.43;;;3.13;;
22388;SDS011;11362;48.102;11.620;2022-12-20T02:27:47;3.53;;;3.23;;
22388;SDS011;11362;48.102;11.620;2022-12-20T02:30:19;3.10;;;2.80;;
22388;SDS011;11362;48.102;11.620;2022-12-20T02:32:47;3.60;;;3.10;;
22388;SDS011;11362;48.102;11.620;2022-12-20T02:35:20;3.00;;;2.63;;
22388;SDS011;11362;48.102;11.620;2022-12-20T02:37:51;3.00;;;2.40;;
22388;SDS011;11362;48.102;11.620;2022-12-20T02:40:19;3.13;;;2.90;;
22388;SDS011;11362;48.102;11.620;2022-12-20T02:42:49;3.30;;;3.00;;
22388;SDS011;11362;48.102;11.620;2022-12-20T02:45:19;3.27;;;3.03;;
22388;SDS011;11362;48.102;11.620;2022-12-20T02:47:58;3.40;;;3.10;;
22388;SDS011;11362;48.102;11.620;2022-12-20T02:50:33;2.97;;;2.77;;
22388;SDS011;11362;48.102;11.620;2022-12-20T02:53:02;4.30;;;2.60;;
22388;SDS011;11362;48.102;11.620;2022-12-20T02:55:33;2.53;;;2.33;;
22388;SDS011;11362;48.102;11.620;2022-12-20T02:58:11;3.10;;;2.53;;
22388;SDS011;11362;48.102;11.620;2022-12-20T03:00:45;3.33;;;2.60;;
22388;SDS011;11362;48.102;11.620;2022-12-20T03:03:14;3.00;;;2.67;;
22388;SDS011;11362;48.102;11.620;2022-12-20T03:05:43;2.67;;;2.47;;
22388;SDS011;11362;48.102;11.620;2022-12-20T03:08:11;3.90;;;2.50;;
22388;SDS011;11362;48.102;11.620;2022-12-20T03:10:36;2.57;;;2.37;;
22388;SDS011;11362;48.102;11.620;2022-12-20T03:13:02;2.83;;;2.63;;
22388;SDS011;11362;48.102;11.620;2022-12-20T03:15:28;3.10;;;2.60;;
22388;SDS011;11362;48.102;11.620;2022-12-20T03:17:53;2.70;;;2.50;;
22388;SDS011;11362;48.102;11.620;2022-12-20T03:20:18;2.10;;;1.97;;
22388;SDS011;11362;48.102;11.620;2022-12-20T03:22:44;4.07;;;2.53;;
22388;SDS011;11362;48.102;11.620;2022-12-20T03:25:09;2.20;;;2.00;;
22388;SDS011;11362;48.102;11.620;2022-12-20T03:27:34;2.13;;;2.03;;
22388;SDS011;11362;48.102;11.620;2022-12-20T03:30:00;1.80;;;1.70;;
22388;SDS011;11362;48.102;11.620;2022-12-20T03:32:25;2.60;;;2.10;;
22388;SDS011;11362;48.102;11.620;2022-12-20T03:34:50;2.10;;;2.00;;
22388;SDS011;11362;48.102;11.620;2022-12-20T03:37:16;2.13;;;2.00;;
22388;SDS011;11362;48.102;11.620;2022-12-20T03:39:41;2.40;;;1.90;;
22388;SDS011;11362;48.102;11.620;2022-12-20T03:42:06;2.50;;;2.30;;
22388;SDS011;11362;48.102;11.620;2022-12-20T03:44:32;2.37;;;2.17;;
22388;SDS011;11362;48.102;11.620;2022-12-20T03:46:57;2.00;;;1.90;;
22388;SDS011;11362;48.102;11.620;2022-12-20T03:49:23;2.97;;;2.37;;
22388;SDS011;11362;48.102;11.620;2022-12-20T03:51:48;1.80;;;1.70;;
22388;SDS011;11362;48.102;11.620;2022-12-20T03:54:13;1.83;;;1.73;;
22388;SDS011;11362;48.102;11.620;2022-12-20T03:56:39;2.03;;;1.87;;
22388;SDS011;11362;48.102;11.620;2022-12-20T03:59:04;2.20;;;2.00;;
22388;SDS011;11362;48.102;11.620;2022-12-20T04:01:29;1.97;;;1.87;;
22388;SDS011;11362;48.102;11.620;2022-12-20T04:03:55;1.90;;;1.80;;
22388;SDS011;11362;48.102;11.620;2022-12-20T04:06:21;1.67;;;1.57;;
22388;SDS011;11362;48.102;11.620;2022-12-20T04:08:47;1.97;;;1.80;;
22388;SDS011;11362;48.102;11.620;2022-12-20T04:11:12;1.70;;;1.60;;
22388;SDS011;11362;48.102;11.620;2022-12-20T04:13:38;2.20;;;1.70;;
22388;SDS011;11362;48.102;11.620;2022-12-20T04:16:03;1.93;;;1.83;;
22388;SDS011;11362;48.102;11.620;2022-12-20T04:18:28;1.77;;;1.67;;
22388;SDS011;11362;48.102;11.620;2022-12-20T04:20:54;1.53;;;1.43;;
22388;SDS011;11362;48.102;11.620;2022-12-20T04:23:19;1.60;;;1.50;;
22388;SDS011;11362;48.102;11.620;2022-12-20T04:25:44;1.93;;;1.80;;
22388;SDS011;11362;48.102;11.620;2022-12-20T04:28:09;1.20;;;1.20;;
22388;SDS011;11362;48.102;11.620;2022-12-20T04:30:35;1.47;;;1.37;;
22388;SDS011;11362;48.102;11.620;2022-12-20T04:33:00;1.47;;;1.47;;
22388;SDS011;11362;48.102;11.620;2022-12-20T04:35:25;1.77;;;1.67;;
22388;SDS011;11362;48.102;11.620;2022-12-20T04:37:50;1.60;;;1.50;;
22388;SDS011;11362;48.102;11.620;2022-12-20T04:40:16;1.50;;;1.40;;
22388;SDS011;11362;48.102;11.620;2022-12-20T04:42:41;1.60;;;1.43;;
22388;SDS011;11362;48.102;11.620;2022-12-20T04:45:06;1.60;;;1.50;;
22388;SDS011;11362;48.102;11.620;2022-12-20T04:47:32;1.37;;;1.27;;
22388;SDS011;11362;48.102;11.620;2022-12-20T04:49:57;1.70;;;1.60;;
22388;SDS011;11362;48.102;11.620;2022-12-20T04:52:22;1.57;;;1.47;;
22388;SDS011;11362;48.102;11.620;2022-12-20T04:54:48;1.67;;;1.57;;
22388;SDS011;11362;48.102;11.620;2022-12-20T04:57:13;1.50;;;1.40;;
22388;SDS011;11362;48.102;11.620;2022-12-20T04:59:38;1.60;;;1.50;;
22388;SDS011;11362;48.102;11.620;2022-12-20T05:02:03;1.63;;;1.00;;
22388;SDS011;11362;48.102;11.620;2022-12-20T05:04:29;1.40;;;1.30;;
22388;SDS011;11362;48.102;11.620;2022-12-20T05:06:54;1.63;;;1.53;;
22388;SDS011;11362;48.102;11.620;2022-12-20T05:09:20;1.20;;;1.20;;
22388;SDS011;11362;48.102;11.620;2022-12-20T05:11:45;1.17;;;1.17;;
22388;SDS011;11362;48.102;11.620;2022-12-20T05:14:10;1.40;;;1.30;;
22388;SDS011;11362;48.102;11.620;2022-12-20T05:16:36;1.37;;;1.37;;
22388;SDS011;11362;48.102;11.620;2022-12-20T05:19:01;1.30;;;1.20;;
22388;SDS011;11362;48.102;11.620;2022-12-20T05:21:27;1.40;;;1.30;;
22388;SDS011;11362;48.102;11.620;2022-12-20T05:23:52;1.20;;;1.10;;
22388;SDS011;11362;48.102;11.620;2022-12-20T05:26:17;1.10;;;1.10;;
22388;SDS011;11362;48.102;11.620;2022-12-20T05:28:43;1.70;;;1.60;;
22388;SDS011;11362;48.102;11.620;2022-12-20T05:31:08;1.70;;;1.60;;
22388;SDS011;11362;48.102;11.620;2022-12-20T05:33:33;1.00;;;1.00;;
22388;SDS011;11362;48.102;11.620;2022-12-20T05:35:59;1.37;;;1.27;;
22388;SDS011;11362;48.102;11.620;2022-12-20T05:38:24;1.43;;;1.40;;
22388;SDS011;11362;48.102;11.620;2022-12-20T05:40:49;1.40;;;1.30;;
22388;SDS011;11362;48.102;11.620;2022-12-20T05:43:15;0.93;;;0.93;;
22388;SDS011;11362;48.102;11.620;2022-12-20T05:45:51;1.20;;;1.20;;
22388;SDS011;11362;48.102;11.620;2022-12-20T05:48:18;1.13;;;1.10;;
22388;SDS011;11362;48.102;11.620;2022-12-20T05:50:43;0.90;;;0.90;;
22388;SDS011;11362;48.102;11.620;2022-12-20T05:53:10;1.03;;;1.00;;
22388;SDS011;11362;48.102;11.620;2022-12-20T05:55:36;1.63;;;1.10;;
22388;SDS011;11362;48.102;11.620;2022-12-20T05:58:02;1.37;;;1.27;;
22388;SDS011;11362;48.102;11.620;2022-12-20T06:00:27;1.50;;;1.40;;
22388;SDS011;11362;48.102;11.620;2022-12-20T06:02:52;1.17;;;1.17;;
22388;SDS011;11362;48.102;11.620;2022-12-20T06:05:18;1.53;;;1.43;;
22388;SDS011;11362;48.102;11.620;2022-12-20T06:07:43;1.30;;;1.20;;
22388;SDS011;11362;48.102;11.620;2022-12-20T06:10:08;5.50;;;1.57;;
22388;SDS011;11362;48.102;11.620;2022-12-20T06:12:34;6.90;;;1.63;;
22388;SDS011;11362;48.102;11.620;2022-12-20T06:14:59;8.97;;;1.80;;
22388;SDS011;11362;48.102;11.620;2022-12-20T06:17:25;2.43;;;1.57;;
22388;SDS011;11362;48.102;11.620;2022-12-20T06:19:50;9.40;;;1.90;;
22388;SDS011;11362;48.102;11.620;2022-12-20T06:22:15;7.13;;;2.00;;
22388;SDS011;11362;48.102;11.620;2022-12-20T06:24:41;14.93;;;1.80;;
22388;SDS011;11362;48.102;11.620;2022-12-20T06:27:06;11.23;;;1.83;;
22388;SDS011;11362;48.102;11.620;2022-12-20T06:29:32;8.23;;;2.17;;
22388;SDS011;11362;48.102;11.620;2022-12-20T06:31:57;9.63;;;2.07;;
22388;SDS011;11362;48.102;11.620;2022-12-20T06:34:23;4.63;;;1.90;;
22388;SDS011;11362;48.102;11.620;2022-12-20T06:36:48;5.63;;;1.97;;
22388;SDS011;11362;48.102;11.620;2022-12-20T06:39:13;14.03;;;2.07;;
22388;SDS011;11362;48.102;11.620;2022-12-20T06:41:39;9.03;;;1.83;;
22388;SDS011;11362;48.102;11.620;2022-12-20T06:44:05;6.53;;;1.90;;
22388;SDS011;11362;48.102;11.620;2022-12-20T06:46:31;6.30;;;1.90;;
22388;SDS011;11362;48.102;11.620;2022-12-20T06:48:56;3.90;;;1.60;;
22388;SDS011;11362;48.102;11.620;2022-12-20T06:51:22;9.50;;;2.00;;
22388;SDS011;11362;48.102;11.620;2022-12-20T06:53:48;11.47;;;2.20;;
22388;SDS011;11362;48.102;11.620;2022-12-20T06:56:13;8.00;;;1.60;;
22388;SDS011;11362;48.102;11.620;2022-12-20T06:58:38;7.20;;;2.00;;
22388;SDS011;11362;48.102;11.620;2022-12-20T07:01:04;8.13;;;2.00;;
22388;SDS011;11362;48.102;11.620;2022-12-20T07:03:29;7.57;;;1.43;;
22388;SDS011;11362;48.102;11.620;2022-12-20T07:05:54;3.67;;;1.70;;
22388;SDS011;11362;48.102;11.620;2022-12-20T07:08:20;6.93;;;1.90;;
22388;SDS011;11362;48.102;11.620;2022-12-20T07:10:46;6.07;;;1.67;;
22388;SDS011;11362;48.102;11.620;2022-12-20T07:13:12;6.53;;;1.80;;
22388;SDS011;11362;48.102;11.620;2022-12-20T07:15:37;3.33;;;1.50;;
22388;SDS011;11362;48.102;11.620;2022-12-20T07:18:02;1.93;;;1.30;;
22388;SDS011;11362;48.102;11.620;2022-12-20T07:20:28;3.90;;;1.30;;
22388;SDS011;11362;48.102;11.620;2022-12-20T07:22:54;2.80;;;1.40;;
22388;SDS011;11362;48.102;11.620;2022-12-20T07:25:20;5.00;;;1.77;;
22388;SDS011;11362;48.102;11.620;2022-12-20T07:27:46;9.40;;;1.50;;
22388;SDS011;11362;48.102;11.620;2022-12-20T07:30:12;4.17;;;1.43;;
22388;SDS011;11362;48.102;11.620;2022-12-20T07:32:37;5.97;;;1.97;;
22388;SDS011;11362;48.102;11.620;2022-12-20T07:35:02;5.83;;;1.67;;
22388;SDS011;11362;48.102;11.620;2022-12-20T07:37:28;4.43;;;1.40;;
22388;SDS011;11362;48.102;11.620;2022-12-20T07:39:54;6.13;;;1.37;;
22388;SDS011;11362;48.102;11.620;2022-12-20T07:42:19;2.83;;;1.50;;
22388;SDS011;11362;48.102;11.620;2022-12-20T07:44:44;4.47;;;1.50;;
22388;SDS011;11362;48.102;11.620;2022-12-20T07:47:09;2.57;;;1.43;;
22388;SDS011;11362;48.102;11.620;2022-12-20T07:49:35;3.40;;;1.63;;
22388;SDS011;11362;48.102;11.620;2022-12-20T07:52:01;4.40;;;1.30;;
22388;SDS011;11362;48.102;11.620;2022-12-20T07:54:29;5.33;;;1.17;;
22388;SDS011;11362;48.102;11.620;2022-12-20T07:56:58;3.07;;;1.50;;
22388;SDS011;11362;48.102;11.620;2022-12-20T07:59:36;2.70;;;1.50;;
22388;SDS011;11362;48.102;11.620;2022-12-20T08:02:04;4.23;;;1.63;;
22388;SDS011;11362;48.102;11.620;2022-12-20T08:04:33;2.27;;;1.40;;
22388;SDS011;11362;48.102;11.620;2022-12-20T08:06:58;2.43;;;1.30;;
22388;SDS011;11362;48.102;11.620;2022-12-20T08:09:27;1.70;;;1.20;;
22388;SDS011;11362;48.102;11.620;2022-12-20T08:11:55;2.13;;;1.10;;
22388;SDS011;11362;48.102;11.620;2022-12-20T08:14:22;2.80;;;1.57;;
22388;SDS011;11362;48.102;11.620;2022-12-20T08:16:48;4.83;;;1.40;;
22388;SDS011;11362;48.102;11.620;2022-12-20T08:19:13;1.27;;;1.10;;
22388;SDS011;11362;48.102;11.620;2022-12-20T08:21:38;2.50;;;1.37;;
22388;SDS011;11362;48.102;11.620;2022-12-20T08:24:05;5.63;;;1.23;;
22388;SDS011;11362;48.102;11.620;2022-12-20T08:26:30;1.27;;;1.17;;
22388;SDS011;11362;48.102;11.620;2022-12-20T08:28:56;2.17;;;1.13;;
22388;SDS011;11362;48.102;11.620;2022-12-20T08:31:21;1.73;;;1.27;;
22388;SDS011;11362;48.102;11.620;2022-12-20T08:33:47;2.33;;;1.20;;
22388;SDS011;11362;48.102;11.620;2022-12-20T08:36:12;1.23;;;1.00;;
22388;SDS011;11362;48.102;11.620;2022-12-20T08:38:39;2.47;;;1.20;;
22388;SDS011;11362;48.102;11.620;2022-12-20T08:41:11;2.87;;;0.93;;
22388;SDS011;11362;48.102;11.620;2022-12-20T08:43:38;3.03;;;1.03;;
22388;SDS011;11362;48.102;11.620;2022-12-20T08:46:05;2.53;;;1.10;;
22388;SDS011;11362;48.102;11.620;2022-12-20T08:48:32;2.53;;;1.23;;
22388;SDS011;11362;48.102;11.620;2022-12-20T08:50:59;1.87;;;1.17;;
22388;SDS011;11362;48.102;11.620;2022-12-20T08:53:27;3.07;;;1.00;;
22388;SDS011;11362;48.102;11.620;2022-12-20T08:55:53;2.03;;;1.10;;
22388;SDS011;11362;48.102;11.620;2022-12-20T08:58:26;2.53;;;1.20;;
22388;SDS011;11362;48.102;11.620;2022-12-20T09:00:52;1.47;;;1.20;;
22388;SDS011;11362;48.102;11.620;2022-12-20T09:03:17;3.37;;;1.03;;
22388;SDS011;11362;48.102;11.620;2022-12-20T09:05:43;0.83;;;0.83;;
22388;SDS011;11362;48.102;11.620;2022-12-20T09:08:10;1.23;;;1.10;;
22388;SDS011;11362;48.102;11.620;2022-12-20T09:10:35;3.20;;;1.00;;
22388;SDS011;11362;48.102;11.620;2022-12-20T09:13:00;3.30;;;0.87;;
22388;SDS011;11362;48.102;11.620;2022-12-20T09:15:25;1.23;;;1.10;;
22388;SDS011;11362;48.102;11.620;2022-12-20T09:17:51;2.07;;;1.10;;
22388;SDS011;11362;48.102;11.620;2022-12-20T09:20:16;2.20;;;1.10;;
22388;SDS011;11362;48.102;11.620;2022-12-20T09:22:41;2.53;;;1.03;;
22388;SDS011;11362;48.102;11.620;2022-12-20T09:25:07;0.97;;;0.93;;
22388;SDS011;11362;48.102;11.620;2022-12-20T09:27:32;1.97;;;1.07;;
22388;SDS011;11362;48.102;11.620;2022-12-20T09:29:58;3.80;;;1.20;;
22388;SDS011;11362;48.102;11.620;2022-12-20T09:32:23;1.30;;;1.13;;
22388;SDS011;11362;48.102;11.620;2022-12-20T09:34:48;2.83;;;1.40;;
22388;SDS011;11362;48.102;11.620;2022-12-20T09:37:13;1.70;;;1.10;;
22388;SDS011;11362;48.102;11.620;2022-12-20T09:39:39;1.43;;;1.00;;
22388;SDS011;11362;48.102;11.620;2022-12-20T09:42:07;2.20;;;1.30;;
22388;SDS011;11362;48.102;11.620;2022-12-20T09:44:37;1.17;;;1.00;;
22388;SDS011;11362;48.102;11.620;2022-12-20T09:47:06;1.83;;;1.00;;
22388;SDS011;11362;48.102;11.620;2022-12-20T09:49:34;1.10;;;1.10;;
22388;SDS011;11362;48.102;11.620;2022-12-20T09:57:39;2.93;;;1.33;;
22388;SDS011;11362;48.102;11.620;2022-12-20T10:00:17;1.33;;;1.17;;
22388;SDS011;11362;48.102;11.620;2022-12-20T10:02:44;1.67;;;0.97;;
22388;SDS011;11362;48.102;11.620;2022-12-20T10:07:41;1.63;;;1.10;;
22388;SDS011;11362;48.102;11.620;2022-12-20T10:10:24;2.00;;;1.03;;
22388;SDS011;11362;48.102;11.620;2022-12-20T10:13:06;1.43;;;1.00;;
22388;SDS011;11362;48.102;11.620;2022-12-20T10:15:50;2.80;;;1.40;;
22388;SDS011;11362;48.102;11.620;2022-12-20T10:18:25;2.73;;;1.63;;
22388;SDS011;11362;48.102;11.620;2022-12-20T10:21:19;2.20;;;1.07;;
22388;SDS011;11362;48.102;11.620;2022-12-20T10:24:00;1.10;;;1.00;;
22388;SDS011;11362;48.102;11.620;2022-12-20T10:26:28;2.23;;;1.27;;
22388;SDS011;11362;48.102;11.620;2022-12-20T10:28:54;1.67;;;1.00;;
22388;SDS011;11362;48.102;11.620;2022-12-20T10:31:19;1.50;;;1.40;;
22388;SDS011;11362;48.102;11.620;2022-12-20T10:33:45;2.50;;;1.23;;
22388;SDS011;11362;48.102;11.620;2022-12-20T10:36:22;2.40;;;1.07;;
22388;SDS011;11362;48.102;11.620;2022-12-20T10:38:58;1.67;;;1.20;;
22388;SDS011;11362;48.102;11.620;2022-12-20T10:41:26;2.03;;;1.47;;
22388;SDS011;11362;48.102;11.620;2022-12-20T10:43:58;1.80;;;1.07;;
22388;SDS011;11362;48.102;11.620;2022-12-20T10:46:39;2.60;;;1.30;;
22388;SDS011;11362;48.102;11.620;2022-12-20T10:49:40;2.30;;;1.20;;
22388;SDS011;11362;48.102;11.620;2022-12-20T10:52:01;1.90;;;1.40;;
22388;SDS011;11362;48.102;11.620;2022-12-20T10:54:31;2.30;;;0.90;;
22388;SDS011;11362;48.102;11.620;2022-12-20T10:57:25;1.70;;;1.23;;
22388;SDS011;11362;48.102;11.620;2022-12-20T11:05:02;3.27;;;1.27;;
22388;SDS011;11362;48.102;11.620;2022-12-20T11:07:34;6.47;;;3.13;;
22388;SDS011;11362;48.102;11.620;2022-12-20T11:12:54;3.40;;;3.10;;
22388;SDS011;11362;48.102;11.620;2022-12-20T11:15:22;6.73;;;2.87;;
22388;SDS011;11362;48.102;11.620;2022-12-20T11:17:51;4.47;;;2.63;;
22388;SDS011;11362;48.102;11.620;2022-12-20T11:20:26;5.63;;;2.73;;
22388;SDS011;11362;48.102;11.620;2022-12-20T11:23:13;3.53;;;2.43;;
22388;SDS011;11362;48.102;11.620;2022-12-20T11:28:42;5.73;;;3.27;;
22388;SDS011;11362;48.102;11.620;2022-12-20T11:31:19;4.17;;;2.23;;
22388;SDS011;11362;48.102;11.620;2022-12-20T11:42:17;4.17;;;2.20;;
22388;SDS011;11362;48.102;11.620;2022-12-20T11:48:23;4.97;;;1.80;;
22388;SDS011;11362;48.102;11.620;2022-12-20T11:51:01;1.95;;;1.80;;
22388;SDS011;11362;48.102;11.620;2022-12-20T11:53:31;2.53;;;2.00;;
22388;SDS011;11362;48.102;11.620;2022-12-20T11:56:05;5.03;;;1.87;;
22388;SDS011;11362;48.102;11.620;2022-12-20T11:58:49;2.17;;;1.67;;
22388;SDS011;11362;48.102;11.620;2022-12-20T12:01:21;2.77;;;1.77;;
22388;SDS011;11362;48.102;11.620;2022-12-20T12:06:40;4.53;;;1.80;;
22388;SDS011;11362;48.102;11.620;2022-12-20T12:11:37;3.33;;;1.97;;
22388;SDS011;11362;48.102;11.620;2022-12-20T12:14:05;2.17;;;1.63;;
22388;SDS011;11362;48.102;11.620;2022-12-20T12:16:41;3.40;;;1.80;;
22388;SDS011;11362;48.102;11.620;2022-12-20T12:19:13;2.97;;;1.60;;
22388;SDS011;11362;48.102;11.620;2022-12-20T12:21:40;5.20;;;1.83;;
22388;SDS011;11362;48.102;11.620;2022-12-20T12:24:22;5.17;;;1.90;;
22388;SDS011;11362;48.102;11.620;2022-12-20T12:26:52;3.80;;;2.00;;
22388;SDS011;11362;48.102;11.620;2022-12-20T12:29:18;5.70;;;2.27;;
22388;SDS011;11362;48.102;11.620;2022-12-20T12:34:47;7.90;;;1.70;;
22388;SDS011;11362;48.102;11.620;2022-12-20T12:45:44;9.23;;;2.47;;
22388;SDS011;11362;48.102;11.620;2022-12-20T12:50:49;10.47;;;2.97;;
22388;SDS011;11362;48.102;11.620;2022-12-20T13:01:49;12.27;;;2.87;;
22388;SDS011;11362;48.102;11.620;2022-12-20T13:06:42;5.70;;;3.20;;
22388;SDS011;11362;48.102;11.620;2022-12-20T13:09:21;10.77;;;2.97;;
22388;SDS011;11362;48.102;11.620;2022-12-20T13:12:45;7.60;;;2.27;;
22388;SDS011;11362;48.102;11.620;2022-12-20T13:20:23;10.47;;;2.80;;
22388;SDS011;11362;48.102;11.620;2022-12-20T13:25:34;5.33;;;2.20;;
22388;SDS011;11362;48.102;11.620;2022-12-20T13:33:40;8.17;;;2.53;;
22388;SDS011;11362;48.102;11.620;2022-12-20T13:38:53;9.10;;;2.70;;
22388;SDS011;11362;48.102;11.620;2022-12-20T13:41:24;3.97;;;2.30;;
22388;SDS011;11362;48.102;11.620;2022-12-20T13:43:56;9.77;;;2.23;;
22388;SDS011;11362;48.102;11.620;2022-12-20T13:47:11;5.90;;;2.43;;
22388;SDS011;11362;48.102;11.620;2022-12-20T13:49:23;6.10;;;2.60;;
22388;SDS011;11362;48.102;11.620;2022-12-20T13:54:35;3.27;;;2.37;;
22388;SDS011;11362;48.102;11.620;2022-12-20T13:57:08;7.70;;;2.00;;
22388;SDS011;11362;48.102;11.620;2022-12-20T13:59:42;7.03;;;1.90;;
22388;SDS011;11362;48.102;11.620;2022-12-20T14:02:16;5.87;;;2.27;;
22388;SDS011;11362;48.102;11.620;2022-12-20T14:04:45;5.43;;;2.10;;
22388;SDS011;11362;48.102;11.620;2022-12-20T14:07:21;6.13;;;2.23;;
22388;SDS011;11362;48.102;11.620;2022-12-20T14:09:48;7.43;;;2.80;;
22388;SDS011;11362;48.102;11.620;2022-12-20T14:12:20;4.13;;;2.23;;
22388;SDS011;11362;48.102;11.620;2022-12-20T14:14:46;4.23;;;1.73;;
22388;SDS011;11362;48.102;11.620;2022-12-20T14:17:14;3.30;;;2.03;;
22388;SDS011;11362;48.102;11.620;2022-12-20T14:20:12;5.20;;;2.20;;
22388;SDS011;11362;48.102;11.620;2022-12-20T14:22:41;4.00;;;2.07;;
22388;SDS011;11362;48.102;11.620;2022-12-20T14:25:07;2.00;;;1.73;;
22388;SDS011;11362;48.102;11.620;2022-12-20T14:27:35;3.80;;;1.93;;
22388;SDS011;11362;48.102;11.620;2022-12-20T14:30:01;4.27;;;2.20;;
22388;SDS011;11362;48.102;11.620;2022-12-20T14:32:28;4.17;;;1.73;;
22388;SDS011;11362;48.102;11.620;2022-12-20T14:34:53;3.63;;;2.20;;
22388;SDS011;11362;48.102;11.620;2022-12-20T14:37:26;5.40;;;2.30;;
22388;SDS011;11362;48.102;11.620;2022-12-20T14:40:13;4.03;;;1.93;;
22388;SDS011;11362;48.102;11.620;2022-12-20T14:42:38;5.03;;;2.10;;
22388;SDS011;11362;48.102;11.620;2022-12-20T14:45:05;5.27;;;2.70;;
22388;SDS011;11362;48.102;11.620;2022-12-20T14:47:53;5.93;;;2.50;;
22388;SDS011;11362;48.102;11.620;2022-12-20T14:50:24;8.47;;;2.77;;
22388;SDS011;11362;48.102;11.620;2022-12-20T14:52:53;5.87;;;2.57;;
22388;SDS011;11362;48.102;11.620;2022-12-20T14:55:22;4.13;;;1.97;;
22388;SDS011;11362;48.102;11.620;2022-12-20T14:57:53;4.73;;;2.17;;
22388;SDS011;11362;48.102;11.620;2022-12-20T15:10:37;3.97;;;2.30;;
22388;SDS011;11362;48.102;11.620;2022-12-20T15:13:03;7.73;;;2.63;;
22388;SDS011;11362;48.102;11.620;2022-12-20T15:15:30;5.03;;;2.33;;
22388;SDS011;11362;48.102;11.620;2022-12-20T15:17:55;3.60;;;2.43;;
22388;SDS011;11362;48.102;11.620;2022-12-20T15:20:20;10.33;;;3.03;;
22388;SDS011;11362;48.102;11.620;2022-12-20T15:22:46;4.63;;;2.30;;
22388;SDS011;11362;48.102;11.620;2022-12-20T15:25:14;6.13;;;2.37;;
22388;SDS011;11362;48.102;11.620;2022-12-20T15:27:41;5.37;;;2.20;;
22388;SDS011;11362;48.102;11.620;2022-12-20T15:30:15;5.60;;;2.17;;
22388;SDS011;11362;48.102;11.620;2022-12-20T15:32:41;6.40;;;2.53;;
22388;SDS011;11362;48.102;11.620;2022-12-20T15:35:12;5.43;;;2.10;;
22388;SDS011;11362;48.102;11.620;2022-12-20T15:37:39;4.67;;;2.10;;
22388;SDS011;11362;48.102;11.620;2022-12-20T15:40:04;6.40;;;2.17;;
22388;SDS011;11362;48.102;11.620;2022-12-20T15:42:31;3.93;;;2.60;;
22388;SDS011;11362;48.102;11.620;2022-12-20T15:44:57;3.80;;;2.33;;
22388;SDS011;11362;48.102;11.620;2022-12-20T15:47:22;4.70;;;2.43;;
22388;SDS011;11362;48.102;11.620;2022-12-20T15:49:48;5.20;;;2.10;;
22388;SDS011;11362;48.102;11.620;2022-12-20T15:52:22;4.13;;;2.43;;
22388;SDS011;11362;48.102;11.620;2022-12-20T15:54:48;5.20;;;2.73;;
22388;SDS011;11362;48.102;11.620;2022-12-20T15:57:14;2.80;;;2.23;;
22388;SDS011;11362;48.102;11.620;2022-12-20T15:59:39;3.73;;;2.10;;
22388;SDS011;11362;48.102;11.620;2022-12-20T16:02:22;5.87;;;2.60;;
22388;SDS011;11362;48.102;11.620;2022-12-20T16:04:50;3.53;;;2.67;;
22388;SDS011;11362;48.102;11.620;2022-12-20T16:07:16;4.60;;;2.90;;
22388;SDS011;11362;48.102;11.620;2022-12-20T16:09:41;3.17;;;2.47;;
22388;SDS011;11362;48.102;11.620;2022-12-20T16:14:53;6.60;;;2.57;;
22388;SDS011;11362;48.102;11.620;2022-12-20T16:17:18;4.67;;;2.70;;
22388;SDS011;11362;48.102;11.620;2022-12-20T16:19:44;4.23;;;2.57;;